Hovedside
METAR-TAF:

METAR-TAF

Lufthavner :

Joensuu, Finland

Joensuu lufthavn

breddegrad: 62-40N, lengdegrad: 029-38E, høyde over havet: 119 m

Gjeldene værobservasjon

Denne rapporten ble laget for 38 minutter siden, klokken 09:50 UTC
Vind 8 kt fra Sørøst, skiftende mellom Øst og Sør
Temperatur 11°C
Luftfuktighet 94%
Trykk 995 hPa
Sikt 10 km eller mer
Overskyet i en høyde av 500 ft
lett regn

METAR: EFJO 250950Z 13008KT 100V170 9999 -RA OVC005 11/10 Q0995

Tid: 13:28 (10:28 UTC)

Varsel

Denne rapporten ble laget for 1 time og 51 minutter siden, klokken 08:37 UTC
Varsel gyldig fra 25. klokken 09 UTC til 25. klokken 16 UTC
Vind 9 kt fra Sørøst
Sikt 10 km eller mer
Brutte skyer i en høyde av 1000 ft
lett regn
Midlertidig
fra 25. klokken 09 UTC til 25. klokken 15 UTC
Sikt: 7000 m
Brutte skyer i en høyde av 400 ft
regn

TAF: EFJO 250837Z 2509/2516 14009KT 9999 -RA BKN010 TEMPO 2509/2515 7000 RA BKN004

Værobservasjoner og værvarsel for over 4000 flyplasser (METAR- og TAF-rapporter).

Tilgjengelige stasjoner er representert av de røde og gule prikkene på kartet.

Hold musepekeren over prikken for å se navnet på stasjonen.

Klikk så for å se værobservasjoner og -varsler.

For å forandre kartet kan du klikke på den grønne knappen med svart kryss for å zoome inn, på den grønne knappen med strek for å zoome ut, eller på de grønne pilene for å se tilstøtende kart.


METAR-TAF: